Time;durP1;ratioP1;P1;durP2;ratioP2;P2;SDS_P1;SDS_P2;PMS_P1;PMS_P2;Temp;Humidity;BMP_temperature;BMP_pressure;BME280_temperature;BME280_humidity;BME280_pressure;Samples;Min_cycle;Max_cycle;Signal;HPM_P1;HPM_P2
2022/06/12 00:00:00;;;;;;;;;3.00;1.00;;;;;35.32;20.05;101914.91;5094894;27;48269;-77
2022/06/12 00:02:25;;;;;;;;;2.67;1.00;;;;;35.30;19.66;101916.84;5096228;27;45334;-76
2022/06/12 00:04:51;;;;;;;;;2.00;0.00;;;;;35.22;19.83;101906.34;5096322;27;45473;-76
2022/06/12 00:07:17;;;;;;;;;0.67;0.67;;;;;35.27;19.58;101912.41;5095963;27;45297;-77
2022/06/12 00:09:42;;;;;;;;;2.33;1.67;;;;;35.27;19.59;101915.16;5095095;27;46513;-76
2022/06/12 00:12:08;;;;;;;;;0.67;0.67;;;;;35.36;19.56;101917.34;5096172;27;45429;-77
2022/06/12 00:14:33;;;;;;;;;4.00;2.00;;;;;35.20;19.80;101916.56;5096186;27;45477;-77
2022/06/12 00:16:59;;;;;;;;;1.67;1.00;;;;;35.25;19.83;101919.91;5096442;27;45400;-76
2022/06/12 00:19:24;;;;;;;;;3.33;1.00;;;;;35.14;19.98;101909.59;5096161;27;45618;-76
2022/06/12 00:21:50;;;;;;;;;4.00;1.00;;;;;35.29;19.68;101910.44;5095462;27;45378;-76
2022/06/12 00:24:19;;;;;;;;;2.67;1.00;;;;;35.22;19.57;101903.56;5096234;27;45536;-76
2022/06/12 00:26:48;;;;;;;;;2.00;1.00;;;;;35.40;19.81;101918.00;5096063;27;45501;-76
2022/06/12 00:29:18;;;;;;;;;1.33;1.33;;;;;35.36;19.77;101919.22;5095865;27;46300;-76
2022/06/12 00:31:51;;;;;;;;;1.33;1.33;;;;;35.13;19.79;101901.44;5095656;27;45433;-77
2022/06/12 00:34:19;;;;;;;;;1.00;1.00;;;;;35.07;19.91;101899.97;5095627;27;45450;-76
2022/06/12 00:36:45;;;;;;;;;2.00;1.00;;;;;35.14;20.24;101912.34;5095967;27;45306;-76
2022/06/12 00:39:11;;;;;;;;;2.33;2.00;;;;;35.14;20.21;101906.84;5095939;27;45360;-76
2022/06/12 00:41:38;;;;;;;;;2.33;1.33;;;;;35.06;20.12;101909.22;5095756;27;45321;-77
2022/06/12 00:44:05;;;;;;;;;1.00;1.00;;;;;35.14;20.25;101934.41;5095772;27;45377;-77
2022/06/12 00:46:36;;;;;;;;;2.00;0.67;;;;;35.16;20.01;101931.56;5096071;27;45638;-76
2022/06/12 00:49:08;;;;;;;;;1.67;1.67;;;;;34.97;20.19;101919.00;5095385;27;45556;-76
2022/06/12 00:51:34;;;;;;;;;2.00;1.00;;;;;34.93;20.59;101931.22;5095693;27;45309;-76
2022/06/12 00:53:59;;;;;;;;;4.00;1.00;;;;;35.00;20.32;101931.69;5094470;27;45421;-76
2022/06/12 00:56:30;;;;;;;;;1.00;1.00;;;;;35.01;20.43;101927.97;5095564;27;45294;-77
2022/06/12 00:59:03;;;;;;;;;0.00;0.00;;;;;34.95;20.27;101909.06;5095438;27;45525;-77
2022/06/12 01:01:39;;;;;;;;;1.67;1.00;;;;;34.99;20.19;101913.38;5095830;27;45396;-76
2022/06/12 01:06:54;;;;;;;;;3.00;1.00;;;;;34.93;20.36;101898.13;5095319;27;45361;-76
2022/06/12 01:09:28;;;;;;;;;3.00;1.00;;;;;34.88;20.30;101905.81;5094038;27;47378;-76
2022/06/12 01:11:56;;;;;;;;;1.00;1.00;;;;;34.81;20.35;101899.84;5095506;27;45511;-76
2022/06/12 01:14:27;;;;;;;;;2.00;1.00;;;;;34.80;20.41;101903.56;5095416;27;45554;-76
2022/06/12 01:16:56;;;;;;;;;1.67;1.00;;;;;34.85;20.61;101915.19;5111184;27;45399;-76
2022/06/12 01:19:38;;;;;;;;;1.33;1.00;;;;;34.72;20.48;101908.66;5094958;27;46190;-76
2022/06/12 01:22:26;;;;;;;;;2.67;2.00;;;;;34.52;20.14;101894.31;5098583;27;45562;-76
2022/06/12 01:25:09;;;;;;;;;3.00;2.00;;;;;34.51;20.85;101921.97;5097485;27;45550;-76
2022/06/12 01:27:53;;;;;;;;;2.00;2.00;;;;;34.50;20.89;101918.34;5114746;27;45432;-76
2022/06/12 01:30:29;;;;;;;;;3.33;1.00;;;;;34.36;20.88;101908.19;5098767;27;46308;-76
2022/06/12 01:33:19;;;;;;;;;2.33;2.33;;;;;34.34;21.19;101910.16;5098192;27;45326;-77
2022/06/12 01:36:11;;;;;;;;;2.00;2.00;;;;;34.40;21.07;101922.66;5098961;27;45494;-76
2022/06/12 01:38:52;;;;;;;;;1.00;1.00;;;;;34.43;20.75;101925.22;5098829;27;45673;-76
2022/06/12 01:41:27;;;;;;;;;1.00;1.00;;;;;34.41;21.12;101923.56;5098636;27;45534;-76
2022/06/12 01:44:15;;;;;;;;;1.33;0.00;;;;;34.42;21.03;101928.97;5098349;27;45442;-76
2022/06/12 01:46:59;;;;;;;;;2.00;2.00;;;;;34.31;21.29;101932.38;5098332;27;45416;-76
2022/06/12 01:49:36;;;;;;;;;3.00;1.00;;;;;34.47;20.94;101934.16;5098699;27;45346;-76
2022/06/12 01:52:09;;;;;;;;;3.00;2.00;;;;;34.46;20.99;101941.56;5098409;27;45330;-77
2022/06/12 01:54:49;;;;;;;;;1.33;1.33;;;;;34.38;21.13;101927.38;5098388;27;45404;-77
2022/06/12 01:57:25;;;;;;;;;1.67;1.33;;;;;34.47;20.89;101934.16;5098741;27;45324;-76
2022/06/12 01:59:54;;;;;;;;;1.00;1.00;;;;;34.46;20.88;101935.13;5097195;27;45540;-76
2022/06/12 02:02:29;;;;;;;;;2.00;2.00;;;;;34.36;21.31;101910.94;5097955;27;46424;-77
2022/06/12 02:04:59;;;;;;;;;2.00;2.00;;;;;34.34;21.07;101917.53;5096756;27;45378;-76
2022/06/12 02:07:34;;;;;;;;;3.00;3.00;;;;;34.26;21.03;101914.34;5098501;27;45513;-77
2022/06/12 02:10:09;;;;;;;;;5.33;2.00;;;;;34.22;21.01;101932.94;5115108;27;45592;-77
2022/06/12 02:15:28;;;;;;;;;3.33;2.00;;;;;33.90;21.45;101921.19;5118827;27;45427;-77
2022/06/12 02:18:10;;;;;;;;;3.00;3.00;;;;;33.98;21.49;101932.59;5118444;27;45569;-77
2022/06/12 02:20:58;;;;;;;;;3.00;2.00;;;;;33.90;21.69;101919.31;5118829;27;45369;-77
2022/06/12 02:23:31;;;;;;;;;4.00;3.00;;;;;33.92;21.66;101924.72;5118518;27;46422;-77
2022/06/12 02:25:58;;;;;;;;;4.33;2.00;;;;;33.92;21.32;101936.59;5118497;27;45428;-77
2022/06/12 02:28:31;;;;;;;;;3.00;3.00;;;;;33.92;21.61;101941.22;5118574;27;45443;-76
2022/06/12 02:31:05;;;;;;;;;3.00;3.00;;;;;34.07;21.47;101936.66;5117715;27;45352;-76
2022/06/12 02:33:40;;;;;;;;;5.00;4.00;;;;;34.02;21.69;101937.84;5118393;27;45571;-77
2022/06/12 02:36:15;;;;;;;;;2.00;2.00;;;;;34.05;21.43;101946.88;5118400;27;45378;-76
2022/06/12 02:38:56;;;;;;;;;3.33;3.33;;;;;33.85;21.50;101922.34;5118545;27;45416;-76
2022/06/12 02:41:36;;;;;;;;;5.33;4.00;;;;;33.87;21.88;101929.59;5118696;27;45301;-76
2022/06/12 02:44:10;;;;;;;;;5.00;3.00;;;;;33.84;21.72;101948.09;5118127;27;46308;-76
2022/06/12 02:47:00;;;;;;;;;3.67;3.00;;;;;33.72;21.84;101943.28;5118044;27;45409;-76
2022/06/12 02:49:25;;;;;;;;;4.00;4.00;;;;;33.70;22.03;101942.53;5118500;27;45270;-76
2022/06/12 02:52:18;;;;;;;;;3.67;3.00;;;;;33.75;21.71;101956.00;5118166;27;45540;-76
2022/06/12 02:55:28;;;;;;;;;4.00;3.00;;;;;33.82;21.49;101950.03;5118165;27;45207;-76
2022/06/12 02:58:02;;;;;;;;;2.67;2.33;;;;;34.00;21.80;101948.03;5054194;28;45550;-76
2022/06/12 03:00:41;;;;;;;;;4.67;3.33;;;;;33.95;21.60;101933.69;5054338;28;45503;-76
2022/06/12 03:03:45;;;;;;;;;2.00;2.00;;;;;34.10;21.54;101953.88;5054550;28;45459;-76
2022/06/12 03:06:12;;;;;;;;;3.00;2.33;;;;;34.02;21.76;101934.16;5054031;28;45587;-76
2022/06/12 03:08:42;;;;;;;;;4.00;2.33;;;;;34.09;21.58;101949.31;5048335;28;45383;-76
2022/06/12 03:11:21;;;;;;;;;4.33;2.00;;;;;34.13;21.56;101945.41;5034318;28;45666;-76
2022/06/12 03:13:48;;;;;;;;;4.00;2.33;;;;;33.97;21.63;101939.09;5033804;28;45546;-76
2022/06/12 03:16:24;;;;;;;;;2.33;2.33;;;;;34.06;21.50;101940.38;5034068;28;46350;-76
2022/06/12 03:18:56;;;;;;;;;3.00;2.00;;;;;34.12;21.23;101940.91;5033676;28;45357;-77
2022/06/12 03:21:24;;;;;;;;;4.00;3.00;;;;;34.05;21.72;101945.03;5034324;28;45503;-77
2022/06/12 03:24:04;;;;;;;;;3.67;2.00;;;;;33.88;21.71;101934.13;5017365;28;45418;-77
2022/06/12 03:26:40;;;;;;;;;2.00;2.00;;;;;33.84;21.63;101939.84;5033600;28;46794;-76
2022/06/12 03:29:28;;;;;;;;;2.00;2.00;;;;;33.80;21.83;101945.63;5033437;28;45566;-76
2022/06/12 03:32:20;;;;;;;;;3.67;2.00;;;;;33.87;21.62;101940.63;5033760;28;45420;-76
2022/06/12 03:35:13;;;;;;;;;2.67;2.00;;;;;33.89;21.93;101949.69;5077283;27;45585;-76
2022/06/12 03:37:49;;;;;;;;;2.00;2.00;;;;;33.82;22.00;101950.03;5086926;27;46327;-76
2022/06/12 03:40:26;;;;;;;;;2.67;1.67;;;;;33.81;21.83;101952.91;5077251;27;45484;-76
2022/06/12 03:43:00;;;;;;;;;2.00;1.00;;;;;33.83;22.08;101943.56;5093654;27;45464;-76
2022/06/12 03:45:35;;;;;;;;;1.67;1.67;;;;;33.82;21.90;101938.16;5094598;27;45559;-77
2022/06/12 03:48:15;;;;;;;;;1.33;1.33;;;;;33.87;21.68;101948.88;5094313;27;46156;-77
2022/06/12 03:50:51;;;;;;;;;3.00;2.00;;;;;33.77;21.96;101926.53;5077369;27;45371;-76
2022/06/12 03:53:26;;;;;;;;;1.00;1.00;;;;;33.76;22.06;101933.91;5094452;27;45668;-76
2022/06/12 03:58:52;;;;;;;;;1.67;1.00;;;;;33.70;22.20;101950.78;5093874;27;45411;-76
2022/06/12 04:01:19;;;;;;;;;1.00;0.33;;;;;33.68;21.74;101937.13;5094264;27;45432;-76
2022/06/12 04:03:46;;;;;;;;;3.00;2.00;;;;;33.56;21.93;101936.94;5094389;27;45375;-76
2022/06/12 04:06:16;;;;;;;;;1.33;1.33;;;;;33.49;22.19;101926.31;5094315;27;45517;-77
2022/06/12 04:08:49;;;;;;;;;1.67;0.67;;;;;33.49;21.97;101939.19;5094209;27;45590;-76
2022/06/12 04:11:18;;;;;;;;;1.00;1.00;;;;;33.56;22.18;101942.44;5094443;27;45437;-76
2022/06/12 04:13:46;;;;;;;;;1.00;1.00;;;;;33.54;22.15;101925.16;5096132;27;45688;-76
2022/06/12 04:16:23;;;;;;;;;3.00;2.00;;;;;33.72;22.03;101921.28;5096551;27;45378;-76
2022/06/12 04:18:49;;;;;;;;;1.33;1.33;;;;;33.69;22.25;101922.34;5096035;27;46010;-76
2022/06/12 04:22:04;;;;;;;;;1.00;1.00;;;;;33.92;21.71;101938.47;5096152;27;45455;-77
2022/06/12 04:24:42;;;;;;;;;2.00;2.00;;;;;33.76;22.02;101924.78;5053256;28;45509;-77
2022/06/12 04:27:24;;;;;;;;;1.67;1.67;;;;;33.87;21.72;101941.53;5052729;28;45597;-76
2022/06/12 04:29:56;;;;;;;;;1.33;1.33;;;;;34.01;21.91;101938.81;5053060;28;46464;-77
2022/06/12 04:32:22;;;;;;;;;1.67;0.67;;;;;33.98;21.49;101944.50;5053201;28;45615;-77
2022/06/12 04:34:48;;;;;;;;;1.33;1.33;;;;;34.05;21.95;101956.03;5053310;28;45371;-77
2022/06/12 04:37:16;;;;;;;;;3.00;2.00;;;;;34.15;22.09;101954.47;5053298;28;45515;-77
2022/06/12 04:39:43;;;;;;;;;1.00;1.00;;;;;34.11;21.65;101930.84;5052826;28;45440;-77
2022/06/12 04:42:11;;;;;;;;;1.00;1.00;;;;;34.18;21.80;101950.66;5052730;28;45431;-77
2022/06/12 04:44:37;;;;;;;;;4.00;1.00;;;;;34.09;21.54;101952.09;5053073;28;45456;-79
2022/06/12 04:47:04;;;;;;;;;2.00;2.00;;;;;34.05;22.01;101941.38;5035814;28;45665;-79
2022/06/12 04:49:32;;;;;;;;;2.67;1.00;;;;;33.88;21.71;101903.88;5035989;28;48046;-78
2022/06/12 04:51:59;;;;;;;;;4.67;1.00;;;;;34.21;22.02;101944.94;5052929;28;45364;-79
2022/06/12 04:54:27;;;;;;;;;1.00;1.00;;;;;34.40;21.35;101944.69;5053477;28;45556;-79
2022/06/12 04:56:52;;;;;;;;;3.00;1.33;;;;;34.41;21.46;101940.97;5039190;28;45531;-79
2022/06/12 04:59:20;;;;;;;;;3.00;2.00;;;;;34.27;21.31;101928.03;5096783;27;46883;-79
2022/06/12 05:01:47;;;;;;;;;4.67;2.67;;;;;34.32;21.37;101947.06;5099373;27;45313;-79
2022/06/12 05:04:12;;;;;;;;;1.00;1.00;;;;;34.42;21.48;101939.97;5099382;27;45531;-79
2022/06/12 05:06:39;;;;;;;;;1.00;1.00;;;;;34.36;21.52;101940.34;5099691;27;45525;-79
2022/06/12 05:09:07;;;;;;;;;1.33;1.33;;;;;34.35;21.36;101939.47;5098711;27;45598;-79
2022/06/12 05:11:33;;;;;;;;;2.00;2.00;;;;;34.12;21.52;101901.44;5098950;27;45331;-79
2022/06/12 05:13:59;;;;;;;;;2.00;2.00;;;;;34.56;21.54;101940.94;5099331;27;45448;-79
2022/06/12 05:16:34;;;;;;;;;6.67;1.00;;;;;34.57;21.35;101942.72;5099156;27;45453;-79
2022/06/12 05:19:00;;;;;;;;;4.67;1.67;;;;;34.35;21.36;101936.72;5098777;27;45551;-79
2022/06/12 05:21:28;;;;;;;;;3.33;1.00;;;;;34.29;21.26;101942.63;5099126;27;45429;-79
2022/06/12 05:23:54;;;;;;;;;2.00;2.00;;;;;34.27;21.29;101932.66;5099038;27;45341;-79
2022/06/12 05:26:20;;;;;;;;;1.00;1.00;;;;;34.15;21.42;101924.19;5098788;27;45197;-79
2022/06/12 05:28:47;;;;;;;;;3.67;2.00;;;;;34.08;21.62;101932.91;5098967;27;46467;-79
2022/06/12 05:31:12;;;;;;;;;1.67;1.00;;;;;34.01;21.72;101935.19;5098688;27;45515;-79
2022/06/12 05:33:37;;;;;;;;;2.33;1.33;;;;;33.94;21.91;101939.25;5098915;27;45562;-79
2022/06/12 05:36:04;;;;;;;;;5.67;3.00;;;;;33.97;22.02;101931.72;5098569;27;45601;-79
2022/06/12 05:38:30;;;;;;;;;4.67;2.33;;;;;33.96;21.92;101923.56;5098827;27;45373;-79
2022/06/12 05:40:55;;;;;;;;;1.00;1.00;;;;;34.11;21.46;101933.63;5098518;27;45398;-79
2022/06/12 05:43:21;;;;;;;;;1.33;1.00;;;;;34.04;21.85;101904.69;5098895;27;46018;-79
2022/06/12 05:45:47;;;;;;;;;2.33;1.33;;;;;34.09;21.61;101919.03;5098846;27;45602;-79
2022/06/12 05:48:16;;;;;;;;;2.33;2.00;;;;;34.27;21.80;101941.78;5098443;27;46718;-79
2022/06/12 05:50:47;;;;;;;;;2.67;2.00;;;;;34.17;21.43;101935.97;5098765;27;45374;-79
2022/06/12 05:53:12;;;;;;;;;1.00;1.00;;;;;34.20;21.74;101937.66;5098134;27;45321;-79
2022/06/12 05:55:38;;;;;;;;;4.33;2.67;;;;;34.22;21.43;101941.22;5097392;27;45585;-79
2022/06/12 05:58:03;;;;;;;;;1.00;1.00;;;;;34.35;21.34;101939.47;5098295;27;45358;-80
2022/06/12 06:00:31;;;;;;;;;2.33;1.00;;;;;34.27;21.11;101949.19;5114291;27;45859;-78
2022/06/12 06:02:56;;;;;;;;;1.00;1.00;;;;;34.01;21.13;101921.41;5098545;27;45306;-79
2022/06/12 06:05:22;;;;;;;;;2.00;2.00;;;;;34.15;21.32;101948.97;5097127;27;45339;-79
2022/06/12 06:07:47;;;;;;;;;1.33;1.33;;;;;34.10;20.93;101945.59;5097183;27;46192;-79
2022/06/12 06:10:18;;;;;;;;;1.00;1.00;;;;;34.09;21.41;101954.84;5097981;27;45339;-79
2022/06/12 06:12:43;;;;;;;;;2.00;1.00;;;;;34.15;21.33;101946.22;5098488;27;45333;-78
2022/06/12 06:15:10;;;;;;;;;2.00;1.00;;;;;34.44;20.94;101951.78;5098137;27;45527;-79
2022/06/12 06:17:36;;;;;;;;;2.00;2.00;;;;;34.44;20.91;101949.03;5098222;27;46425;-76
2022/06/12 06:20:01;;;;;;;;;2.33;1.67;;;;;34.37;21.20;101961.41;5096498;27;45520;-76
2022/06/12 06:22:27;;;;;;;;;1.00;1.00;;;;;34.43;20.86;101941.75;5098059;27;45535;-76
2022/06/12 06:24:52;;;;;;;;;1.00;1.00;;;;;34.46;20.69;101966.34;5098074;27;46202;-78
2022/06/12 06:27:17;;;;;;;;;1.33;1.00;;;;;34.46;20.56;101957.19;5097769;27;50805;-79
2022/06/12 06:29:43;;;;;;;;;3.00;2.00;;;;;34.43;20.86;101965.66;5098104;27;45474;-78
2022/06/12 06:32:11;;;;;;;;;2.67;2.33;;;;;34.31;20.93;101945.28;5113662;27;45439;-78
2022/06/12 06:34:38;;;;;;;;;2.00;2.00;;;;;34.47;20.58;101948.84;5096719;27;45548;-78
2022/06/12 06:37:06;;;;;;;;;1.00;1.00;;;;;34.60;20.91;101959.97;5097431;27;45536;-78
2022/06/12 06:39:31;;;;;;;;;4.33;2.00;;;;;34.70;20.58;101947.34;5096613;27;45376;-78
2022/06/12 06:41:57;;;;;;;;;1.67;1.67;;;;;34.79;20.63;101954.13;5097889;27;45369;-78
2022/06/12 06:47:06;;;;;;;;;4.00;2.00;;;;;34.69;20.44;101948.34;5097558;27;45513;-78
2022/06/12 06:49:32;;;;;;;;;1.00;1.00;;;;;34.52;20.40;101948.53;5097809;27;45396;-78
2022/06/12 06:51:58;;;;;;;;;0.67;0.67;;;;;34.48;21.07;101949.72;5096212;27;45355;-78
2022/06/12 06:54:23;;;;;;;;;2.33;1.33;;;;;34.63;20.59;101970.78;5097546;27;45473;-78
2022/06/12 06:56:50;;;;;;;;;2.33;1.00;;;;;34.75;20.57;101966.34;5097477;27;45486;-78
2022/06/12 06:59:16;;;;;;;;;2.67;2.00;;;;;34.72;20.27;101963.78;5097358;27;45449;-78
2022/06/12 07:01:41;;;;;;;;;2.33;1.00;;;;;34.85;20.80;101974.94;5097809;27;45286;-78
2022/06/12 07:04:07;;;;;;;;;2.67;2.00;;;;;34.56;20.86;101965.75;5097564;27;45259;-79
2022/06/12 07:06:33;;;;;;;;;3.00;2.00;;;;;34.41;20.68;101979.53;5097007;27;45549;-79
2022/06/12 07:08:58;;;;;;;;;3.00;2.00;;;;;34.41;21.12;101979.53;5097340;27;45485;-78
2022/06/12 07:11:25;;;;;;;;;3.33;2.33;;;;;34.53;20.57;101956.72;5097668;27;45444;-79
2022/06/12 07:13:52;;;;;;;;;2.00;2.00;;;;;34.62;20.39;101959.88;5097565;27;45445;-79
2022/06/12 07:16:18;;;;;;;;;4.00;1.67;;;;;34.40;21.14;101966.72;5095497;27;46370;-78
2022/06/12 07:18:44;;;;;;;;;1.67;1.00;;;;;34.44;20.80;101976.56;5097079;27;45382;-78
2022/06/12 07:21:11;;;;;;;;;2.33;2.00;;;;;34.34;20.75;101970.75;5096792;27;45401;-79
2022/06/12 07:23:37;;;;;;;;;4.00;1.33;;;;;34.26;21.19;101958.41;5096260;27;45292;-79
2022/06/12 07:26:08;;;;;;;;;2.00;2.00;;;;;34.39;21.09;101972.34;5095824;27;47299;-79
2022/06/12 07:28:36;;;;;;;;;2.00;2.00;;;;;34.45;20.83;101956.31;5096170;27;45896;-78
2022/06/12 07:31:03;;;;;;;;;2.00;2.00;;;;;34.65;20.68;101965.19;5097032;27;45444;-79
2022/06/12 07:33:29;;;;;;;;;2.00;2.00;;;;;34.75;20.77;101963.59;5097392;27;45373;-78
2022/06/12 07:35:54;;;;;;;;;4.33;2.00;;;;;34.76;20.52;101979.16;5096747;27;45361;-79
2022/06/12 07:38:23;;;;;;;;;3.33;2.33;;;;;34.61;20.50;101974.63;5097088;27;45881;-79
2022/06/12 07:40:53;;;;;;;;;1.67;1.67;;;;;34.31;20.50;101981.97;5097561;27;45401;-79
2022/06/12 07:43:19;;;;;;;;;1.67;1.00;;;;;34.22;20.63;101956.84;5097173;27;45271;-79
2022/06/12 07:45:45;;;;;;;;;1.00;1.00;;;;;34.55;20.73;101961.25;5096918;27;46482;-78
2022/06/12 07:48:11;;;;;;;;;1.33;1.00;;;;;34.67;20.27;101968.72;5096978;27;45554;-79
2022/06/12 07:50:39;;;;;;;;;0.00;0.00;;;;;34.81;20.18;101974.28;5097017;27;45411;-78
2022/06/12 07:53:06;;;;;;;;;3.33;1.00;;;;;34.96;20.34;101982.53;5095590;27;45309;-79
2022/06/12 07:55:31;;;;;;;;;4.00;2.00;;;;;34.82;19.71;101936.56;5096681;27;45374;-79
2022/06/12 07:57:57;;;;;;;;;1.00;1.00;;;;;34.75;20.22;101959.97;5096756;27;45405;-79
2022/06/12 08:00:23;;;;;;;;;3.00;1.67;;;;;34.93;20.48;101960.66;5095771;27;45346;-78
2022/06/12 08:02:49;;;;;;;;;2.00;2.00;;;;;35.10;19.97;101957.69;5095544;27;45487;-79
2022/06/12 08:05:16;;;;;;;;;2.00;2.00;;;;;35.16;20.12;101972.94;5096113;27;45500;-79
2022/06/12 08:07:42;;;;;;;;;2.67;1.00;;;;;35.14;20.21;101970.28;5096728;27;45390;-79
2022/06/12 08:10:08;;;;;;;;;1.67;1.67;;;;;35.29;19.95;101961.97;5096672;27;45432;-78
2022/06/12 08:12:38;;;;;;;;;2.00;1.00;;;;;35.43;19.90;101967.50;5096750;27;45460;-79
2022/06/12 08:15:12;;;;;;;;;4.33;1.00;;;;;35.54;20.09;101966.75;5096479;27;45400;-79
2022/06/12 08:17:37;;;;;;;;;0.33;0.00;;;;;35.51;19.46;101962.34;5096454;27;45512;-79
2022/06/12 08:22:48;;;;;;;;;2.67;1.00;;;;;35.46;19.60;101964.53;5096814;27;45311;-79
2022/06/12 08:25:13;;;;;;;;;1.33;1.33;;;;;35.45;18.88;101964.63;5096286;27;46385;-78
2022/06/12 08:27:39;;;;;;;;;2.33;1.00;;;;;35.36;19.46;101949.59;5096442;27;45427;-76
2022/06/12 08:30:06;;;;;;;;;2.33;2.00;;;;;35.59;19.73;101974.72;5094673;27;45408;-78
2022/06/12 08:32:32;;;;;;;;;2.00;1.00;;;;;35.47;19.46;101952.50;5096296;27;45512;-79
2022/06/12 08:35:01;;;;;;;;;1.00;1.00;;;;;35.54;18.80;101958.47;5095901;27;46473;-79
2022/06/12 08:37:32;;;;;;;;;2.67;1.33;;;;;35.54;19.11;101945.56;5096177;27;45396;-79
2022/06/12 08:39:58;;;;;;;;;3.00;3.00;;;;;35.40;19.19;101931.81;5096327;27;45341;-78
2022/06/12 08:42:46;;;;;;;;;1.00;1.00;;;;;35.64;19.08;101948.59;5096293;27;45343;-79
2022/06/12 08:45:26;;;;;;;;;1.00;1.00;;;;;35.57;19.72;101957.38;5094658;27;47635;-78
2022/06/12 08:48:05;;;;;;;;;1.67;1.67;;;;;35.56;19.35;101948.22;5095650;27;45239;-79
2022/06/12 08:50:48;;;;;;;;;1.00;1.00;;;;;35.60;18.49;101944.25;5096308;27;45369;-79
2022/06/12 08:53:30;;;;;;;;;2.33;1.00;;;;;35.68;18.67;101954.75;5096132;27;45561;-78
2022/06/12 08:56:06;;;;;;;;;3.00;2.00;;;;;35.69;18.77;101951.03;5094566;27;46748;-78
2022/06/12 08:58:41;;;;;;;;;2.00;1.00;;;;;35.77;19.25;101936.66;5095790;27;45372;-79
2022/06/12 09:01:08;;;;;;;;;1.00;1.00;;;;;35.73;17.96;101919.44;5095944;27;45491;-78
2022/06/12 09:03:44;;;;;;;;;1.67;1.00;;;;;35.80;18.96;101942.88;5095682;27;45438;-79
2022/06/12 09:06:28;;;;;;;;;2.00;2.00;;;;;35.74;18.55;101932.28;5095835;27;45377;-79
2022/06/12 09:09:19;;;;;;;;;4.67;4.67;;;;;35.88;18.87;101932.22;5095643;27;45275;-79
2022/06/12 09:11:49;;;;;;;;;1.33;1.33;;;;;35.87;18.88;101938.72;5095579;27;45474;-79
2022/06/12 09:14:35;;;;;;;;;1.00;1.00;;;;;35.90;18.63;101937.63;5094501;27;45436;-79
2022/06/12 09:17:19;;;;;;;;;2.33;1.00;;;;;36.12;18.77;101930.56;5093869;27;46573;-78
2022/06/12 09:20:09;;;;;;;;;5.00;1.00;;;;;36.28;18.55;101931.25;5095505;27;45380;-76
2022/06/12 09:23:00;;;;;;;;;0.67;0.67;;;;;36.10;17.30;101932.56;5111534;27;45326;-79
2022/06/12 09:25:43;;;;;;;;;1.00;1.00;;;;;35.92;17.77;101923.72;5111749;27;45392;-79
2022/06/12 09:28:25;;;;;;;;;3.67;2.33;;;;;36.26;18.53;101929.59;5095421;27;45443;-79
2022/06/12 09:31:06;;;;;;;;;2.33;1.33;;;;;36.54;18.13;101925.75;5093769;27;45403;-78
2022/06/12 09:33:52;;;;;;;;;2.00;1.00;;;;;36.53;17.18;101935.91;5095669;27;45421;-79
2022/06/12 09:36:42;;;;;;;;;1.67;1.00;;;;;36.60;17.29;101938.22;5095430;27;45436;-79
2022/06/12 09:39:13;;;;;;;;;2.00;1.00;;;;;36.33;17.48;101942.91;5095225;27;46880;-79
2022/06/12 09:41:47;;;;;;;;;1.00;1.00;;;;;36.36;16.68;101928.84;5096110;27;45392;-79
2022/06/12 09:44:18;;;;;;;;;2.00;0.00;;;;;36.37;17.60;101930.63;5099058;27;45345;-79
2022/06/12 09:46:55;;;;;;;;;1.00;1.00;;;;;36.61;17.01;101935.38;5097239;27;45422;-79
2022/06/12 09:49:52;;;;;;;;;1.33;1.00;;;;;36.45;16.28;101940.25;5114409;27;47169;-79
2022/06/12 09:52:49;;;;;;;;;0.00;0.00;;;;;36.40;15.90;101930.41;5098728;27;45369;-79
2022/06/12 09:55:38;;;;;;;;;1.00;1.00;;;;;36.63;16.72;101940.78;5098825;27;45580;-79
2022/06/12 09:58:30;;;;;;;;;1.33;1.33;;;;;36.77;17.56;101932.34;5092966;27;45550;-79
2022/06/12 10:01:08;;;;;;;;;2.00;1.00;;;;;36.95;17.55;101932.91;5098205;27;46411;-79
2022/06/12 10:03:39;;;;;;;;;3.00;1.00;;;;;36.96;17.30;101912.53;5098438;27;45321;-79
2022/06/12 10:06:26;;;;;;;;;1.00;1.00;;;;;37.24;17.92;101927.94;5097199;27;45571;-79
2022/06/12 10:09:19;;;;;;;;;2.67;1.00;;;;;37.59;18.07;101935.41;5098059;27;45435;-79
2022/06/12 10:11:51;;;;;;;;;3.00;2.00;;;;;37.25;17.17;101920.50;5098273;27;46563;-79
2022/06/12 10:14:21;;;;;;;;;1.00;1.00;;;;;37.29;16.85;101926.75;5098002;27;45458;-78
2022/06/12 10:16:53;;;;;;;;;2.00;2.00;;;;;37.11;17.66;101927.09;5098683;27;45479;-79
2022/06/12 10:19:35;;;;;;;;;3.00;3.00;;;;;37.04;17.58;101910.06;5098101;27;45416;-78
2022/06/12 10:22:07;;;;;;;;;3.67;3.33;;;;;37.20;17.45;101926.41;5096803;27;48151;-78
2022/06/12 10:24:33;;;;;;;;;2.00;2.00;;;;;36.98;17.54;101906.91;5098312;27;45346;-79
2022/06/12 10:27:08;;;;;;;;;2.00;2.00;;;;;37.19;17.88;101921.88;5098330;27;45614;-79
2022/06/12 10:29:50;;;;;;;;;2.67;2.00;;;;;37.40;17.00;101912.97;5097872;27;45398;-79
2022/06/12 10:32:21;;;;;;;;;2.67;2.00;;;;;37.29;17.04;101907.38;5097960;27;45994;-79
2022/06/12 10:34:48;;;;;;;;;2.33;1.00;;;;;37.39;17.54;101884.38;5097839;27;45366;-78
2022/06/12 10:37:28;;;;;;;;;2.00;1.33;;;;;37.54;17.66;101901.69;5096506;27;45437;-78
2022/06/12 10:40:13;;;;;;;;;5.00;4.00;;;;;37.48;17.65;101899.38;5114018;27;45597;-79
2022/06/12 10:42:48;;;;;;;;;2.00;2.00;;;;;37.48;17.68;101906.81;5097928;27;46300;-79
2022/06/12 10:45:27;;;;;;;;;3.00;2.33;;;;;37.61;17.65;101899.34;5097250;27;45308;-78
2022/06/12 10:47:57;;;;;;;;;5.00;3.00;;;;;37.73;17.56;101881.72;5097872;27;45413;-79
2022/06/12 10:50:48;;;;;;;;;2.00;2.00;;;;;37.66;17.90;101876.81;5097967;27;45482;-79
2022/06/12 10:53:18;;;;;;;;;4.67;3.00;;;;;37.67;17.16;101890.53;5097232;27;45469;-78
2022/06/12 10:55:59;;;;;;;;;2.33;2.33;;;;;37.86;17.36;101876.16;5097600;27;45442;-79
2022/06/12 10:58:51;;;;;;;;;3.00;2.00;;;;;38.14;16.78;101885.00;5097441;27;45371;-79
2022/06/12 11:01:41;;;;;;;;;3.00;3.00;;;;;38.32;17.10;101882.66;5096484;27;45647;-79
2022/06/12 11:04:40;;;;;;;;;5.00;2.67;;;;;38.42;16.84;101880.00;5097635;27;46534;-79
2022/06/12 11:07:28;;;;;;;;;2.67;2.67;;;;;38.11;16.81;101876.94;5097384;27;45441;-79
2022/06/12 11:10:09;;;;;;;;;3.00;2.67;;;;;37.90;17.08;101865.69;5097502;27;45350;-79
2022/06/12 11:13:05;;;;;;;;;1.00;1.00;;;;;38.22;16.37;101865.88;5095844;27;45488;-79
2022/06/12 11:15:44;;;;;;;;;3.33;2.33;;;;;37.93;16.62;101854.34;5097270;27;45385;-78
2022/06/12 11:18:28;;;;;;;;;6.00;6.00;;;;;38.16;17.08;101863.59;5097256;27;45382;-78
2022/06/12 11:21:18;;;;;;;;;5.00;4.33;;;;;38.47;17.01;101847.25;5097479;27;45406;-79
2022/06/12 11:24:02;;;;;;;;;2.67;2.67;;;;;38.72;16.65;101859.09;5113443;27;45583;-79
2022/06/12 11:26:45;;;;;;;;;3.00;3.00;;;;;38.76;17.30;101843.94;5097077;27;46220;-79
2022/06/12 11:29:17;;;;;;;;;4.00;3.00;;;;;38.75;16.63;101844.97;5097192;27;45334;-79
2022/06/12 11:32:16;;;;;;;;;2.33;2.33;;;;;38.78;17.14;101845.59;5113180;27;45381;-79
2022/06/12 11:34:47;;;;;;;;;4.00;2.67;;;;;38.83;16.70;101813.81;5113238;27;45301;-78
2022/06/12 11:37:27;;;;;;;;;4.67;4.00;;;;;38.74;16.99;101838.53;5095763;27;47396;-79
2022/06/12 11:40:09;;;;;;;;;2.00;2.00;;;;;38.74;16.74;101837.66;5097159;27;45227;-79
2022/06/12 11:42:56;;;;;;;;;2.33;2.33;;;;;38.75;16.84;101828.34;5096988;27;45448;-79
2022/06/12 11:45:27;;;;;;;;;4.00;4.00;;;;;38.92;17.04;101826.91;5097291;27;45382;-79
2022/06/12 11:48:08;;;;;;;;;2.00;2.00;;;;;38.87;16.83;101824.50;5112651;27;46330;-79
2022/06/12 11:50:36;;;;;;;;;3.33;3.00;;;;;39.12;16.67;101817.72;5096878;27;45185;-79
2022/06/12 11:53:08;;;;;;;;;6.00;4.00;;;;;39.22;16.32;101815.06;5097173;27;45464;-79
2022/06/12 11:56:03;;;;;;;;;6.00;5.00;;;;;38.95;17.13;101774.78;5096880;27;45275;-79
2022/06/12 11:58:50;;;;;;;;;4.00;4.00;;;;;39.33;17.08;101807.72;5110363;27;47524;-79
2022/06/12 12:01:27;;;;;;;;;4.33;4.00;;;;;39.32;16.15;101804.06;5096871;27;45327;-79
2022/06/12 12:03:58;;;;;;;;;5.00;4.00;;;;;39.39;16.53;101813.59;5096417;27;45527;-79
2022/06/12 12:07:08;;;;;;;;;4.00;3.00;;;;;39.35;16.79;101789.91;5096739;27;45349;-77